sensor_id;sensor_type;location;lat;lon;timestamp;temperature;humidity
67817;DHT22;54614;47.576;7.524;2023-09-18T00:00:04;26.20;87.80
67817;DHT22;54614;47.576;7.524;2023-09-18T00:02:34;26.20;87.90
67817;DHT22;54614;47.576;7.524;2023-09-18T00:05:00;26.20;88.00
67817;DHT22;54614;47.576;7.524;2023-09-18T00:07:25;26.20;88.00
67817;DHT22;54614;47.576;7.524;2023-09-18T00:09:51;26.20;88.10
67817;DHT22;54614;47.576;7.524;2023-09-18T00:12:18;26.20;88.20
67817;DHT22;54614;47.576;7.524;2023-09-18T00:14:43;26.20;88.10
67817;DHT22;54614;47.576;7.524;2023-09-18T00:17:13;26.20;87.90
67817;DHT22;54614;47.576;7.524;2023-09-18T00:19:39;26.20;88.00
67817;DHT22;54614;47.576;7.524;2023-09-18T00:22:04;26.20;88.10
67817;DHT22;54614;47.576;7.524;2023-09-18T00:24:30;26.20;88.10
67817;DHT22;54614;47.576;7.524;2023-09-18T00:26:56;26.20;88.10
67817;DHT22;54614;47.576;7.524;2023-09-18T00:29:22;26.20;88.20
67817;DHT22;54614;47.576;7.524;2023-09-18T00:31:47;26.10;88.20
67817;DHT22;54614;47.576;7.524;2023-09-18T00:34:13;26.10;88.40
67817;DHT22;54614;47.576;7.524;2023-09-18T00:36:39;26.10;88.30
67817;DHT22;54614;47.576;7.524;2023-09-18T00:39:05;26.20;88.40
67817;DHT22;54614;47.576;7.524;2023-09-18T00:41:30;26.20;88.20
67817;DHT22;54614;47.576;7.524;2023-09-18T00:43:56;26.20;88.30
67817;DHT22;54614;47.576;7.524;2023-09-18T00:46:22;26.10;88.40
67817;DHT22;54614;47.576;7.524;2023-09-18T00:48:49;26.20;88.50
67817;DHT22;54614;47.576;7.524;2023-09-18T00:51:16;26.10;88.40
67817;DHT22;54614;47.576;7.524;2023-09-18T00:53:47;26.10;88.50
67817;DHT22;54614;47.576;7.524;2023-09-18T00:56:14;26.20;89.10
67817;DHT22;54614;47.576;7.524;2023-09-18T00:58:41;26.30;88.30
67817;DHT22;54614;47.576;7.524;2023-09-18T01:01:07;26.30;88.40
67817;DHT22;54614;47.576;7.524;2023-09-18T01:03:36;26.20;88.50
67817;DHT22;54614;47.576;7.524;2023-09-18T01:06:02;26.20;88.40
67817;DHT22;54614;47.576;7.524;2023-09-18T01:08:29;26.20;88.60
67817;DHT22;54614;47.576;7.524;2023-09-18T01:13:38;26.10;88.60
67817;DHT22;54614;47.576;7.524;2023-09-18T01:17:19;26.10;88.60
67817;DHT22;54614;47.576;7.524;2023-09-18T01:19:43;26.10;88.60
67817;DHT22;54614;47.576;7.524;2023-09-18T01:22:13;26.10;88.50
67817;DHT22;54614;47.576;7.524;2023-09-18T01:24:41;26.10;88.70
67817;DHT22;54614;47.576;7.524;2023-09-18T01:27:11;26.10;88.60
67817;DHT22;54614;47.576;7.524;2023-09-18T01:29:42;26.10;88.60
67817;DHT22;54614;47.576;7.524;2023-09-18T01:32:12;26.10;88.90
67817;DHT22;54614;47.576;7.524;2023-09-18T01:34:50;26.10;88.80
67817;DHT22;54614;47.576;7.524;2023-09-18T01:37:28;26.10;88.60
67817;DHT22;54614;47.576;7.524;2023-09-18T01:39:55;26.10;88.60
67817;DHT22;54614;47.576;7.524;2023-09-18T01:42:26;26.10;88.70
67817;DHT22;54614;47.576;7.524;2023-09-18T01:44:53;26.10;88.70
67817;DHT22;54614;47.576;7.524;2023-09-18T01:47:21;26.10;88.60
67817;DHT22;54614;47.576;7.524;2023-09-18T01:49:52;26.10;88.60
67817;DHT22;54614;47.576;7.524;2023-09-18T01:52:18;26.10;88.60
67817;DHT22;54614;47.576;7.524;2023-09-18T01:54:44;26.10;88.70
67817;DHT22;54614;47.576;7.524;2023-09-18T01:57:10;26.10;88.70
67817;DHT22;54614;47.576;7.524;2023-09-18T01:59:37;26.10;88.60
67817;DHT22;54614;47.576;7.524;2023-09-18T02:02:04;26.10;88.60
67817;DHT22;54614;47.576;7.524;2023-09-18T02:04:32;26.10;88.60
67817;DHT22;54614;47.576;7.524;2023-09-18T02:06:59;26.10;88.60
67817;DHT22;54614;47.576;7.524;2023-09-18T02:09:25;26.10;88.60
67817;DHT22;54614;47.576;7.524;2023-09-18T02:11:51;26.10;88.60
67817;DHT22;54614;47.576;7.524;2023-09-18T02:14:17;26.10;88.60
67817;DHT22;54614;47.576;7.524;2023-09-18T02:16:43;26.10;88.70
67817;DHT22;54614;47.576;7.524;2023-09-18T02:19:10;26.10;88.60
67817;DHT22;54614;47.576;7.524;2023-09-18T02:21:36;26.10;88.60
67817;DHT22;54614;47.576;7.524;2023-09-18T02:24:03;26.10;88.60
67817;DHT22;54614;47.576;7.524;2023-09-18T02:26:29;26.10;88.50
67817;DHT22;54614;47.576;7.524;2023-09-18T02:28:58;26.10;88.50
67817;DHT22;54614;47.576;7.524;2023-09-18T02:31:25;26.10;88.50
67817;DHT22;54614;47.576;7.524;2023-09-18T02:33:52;26.10;88.50
67817;DHT22;54614;47.576;7.524;2023-09-18T02:36:18;26.10;88.50
67817;DHT22;54614;47.576;7.524;2023-09-18T02:38:43;26.20;88.60
67817;DHT22;54614;47.576;7.524;2023-09-18T02:41:10;26.10;88.50
67817;DHT22;54614;47.576;7.524;2023-09-18T02:43:36;26.10;88.50
67817;DHT22;54614;47.576;7.524;2023-09-18T02:46:07;26.10;88.50
67817;DHT22;54614;47.576;7.524;2023-09-18T02:48:34;26.10;88.50
67817;DHT22;54614;47.576;7.524;2023-09-18T02:51:00;26.10;88.50
67817;DHT22;54614;47.576;7.524;2023-09-18T02:53:27;26.10;88.40
67817;DHT22;54614;47.576;7.524;2023-09-18T02:55:54;26.10;88.40
67817;DHT22;54614;47.576;7.524;2023-09-18T02:58:22;26.10;88.40
67817;DHT22;54614;47.576;7.524;2023-09-18T03:00:51;26.10;88.40
67817;DHT22;54614;47.576;7.524;2023-09-18T03:03:19;26.10;88.40
67817;DHT22;54614;47.576;7.524;2023-09-18T03:05:45;26.10;88.40
67817;DHT22;54614;47.576;7.524;2023-09-18T03:08:12;26.10;88.40
67817;DHT22;54614;47.576;7.524;2023-09-18T03:10:40;26.10;88.30
67817;DHT22;54614;47.576;7.524;2023-09-18T03:13:09;26.10;88.40
67817;DHT22;54614;47.576;7.524;2023-09-18T03:15:37;26.10;88.40
67817;DHT22;54614;47.576;7.524;2023-09-18T03:18:04;26.10;88.40
67817;DHT22;54614;47.576;7.524;2023-09-18T03:20:31;26.10;88.40
67817;DHT22;54614;47.576;7.524;2023-09-18T03:22:58;26.10;88.40
67817;DHT22;54614;47.576;7.524;2023-09-18T03:25:25;26.10;88.50
67817;DHT22;54614;47.576;7.524;2023-09-18T03:27:54;26.10;88.40
67817;DHT22;54614;47.576;7.524;2023-09-18T03:30:22;26.10;88.40
67817;DHT22;54614;47.576;7.524;2023-09-18T03:32:52;26.10;88.30
67817;DHT22;54614;47.576;7.524;2023-09-18T03:35:19;26.10;88.40
67817;DHT22;54614;47.576;7.524;2023-09-18T03:37:52;26.10;88.30
67817;DHT22;54614;47.576;7.524;2023-09-18T03:40:22;26.10;88.30
67817;DHT22;54614;47.576;7.524;2023-09-18T03:42:48;26.10;88.40
67817;DHT22;54614;47.576;7.524;2023-09-18T03:45:14;26.10;88.40
67817;DHT22;54614;47.576;7.524;2023-09-18T03:47:41;26.10;88.30
67817;DHT22;54614;47.576;7.524;2023-09-18T03:50:10;26.10;88.30
67817;DHT22;54614;47.576;7.524;2023-09-18T03:52:38;26.10;88.30
67817;DHT22;54614;47.576;7.524;2023-09-18T03:55:05;26.10;88.40
67817;DHT22;54614;47.576;7.524;2023-09-18T03:57:33;26.10;88.40
67817;DHT22;54614;47.576;7.524;2023-09-18T03:59:59;26.10;88.30
67817;DHT22;54614;47.576;7.524;2023-09-18T04:02:26;26.10;88.40
67817;DHT22;54614;47.576;7.524;2023-09-18T04:04:53;26.10;88.40
67817;DHT22;54614;47.576;7.524;2023-09-18T04:07:19;26.10;88.50
67817;DHT22;54614;47.576;7.524;2023-09-18T04:09:46;26.10;88.50
67817;DHT22;54614;47.576;7.524;2023-09-18T04:12:12;26.10;88.50
67817;DHT22;54614;47.576;7.524;2023-09-18T04:14:38;26.10;88.50
67817;DHT22;54614;47.576;7.524;2023-09-18T04:17:04;26.10;88.50
67817;DHT22;54614;47.576;7.524;2023-09-18T04:19:30;26.10;88.60
67817;DHT22;54614;47.576;7.524;2023-09-18T04:21:56;26.10;88.50
67817;DHT22;54614;47.576;7.524;2023-09-18T04:24:22;26.10;88.50
67817;DHT22;54614;47.576;7.524;2023-09-18T04:26:49;26.00;88.40
67817;DHT22;54614;47.576;7.524;2023-09-18T04:29:18;26.10;88.40
67817;DHT22;54614;47.576;7.524;2023-09-18T04:31:44;26.10;88.60
67817;DHT22;54614;47.576;7.524;2023-09-18T04:34:11;26.10;88.50
67817;DHT22;54614;47.576;7.524;2023-09-18T04:36:37;26.10;88.50
67817;DHT22;54614;47.576;7.524;2023-09-18T04:39:04;26.10;88.60
67817;DHT22;54614;47.576;7.524;2023-09-18T04:41:31;26.10;88.50
67817;DHT22;54614;47.576;7.524;2023-09-18T04:43:58;26.10;88.50
67817;DHT22;54614;47.576;7.524;2023-09-18T04:46:24;26.10;88.60
67817;DHT22;54614;47.576;7.524;2023-09-18T04:48:50;26.10;88.60
67817;DHT22;54614;47.576;7.524;2023-09-18T04:51:16;26.10;88.50
67817;DHT22;54614;47.576;7.524;2023-09-18T04:53:42;26.10;88.50
67817;DHT22;54614;47.576;7.524;2023-09-18T04:56:08;26.10;88.50
67817;DHT22;54614;47.576;7.524;2023-09-18T04:58:38;26.10;88.50
67817;DHT22;54614;47.576;7.524;2023-09-18T05:01:04;26.10;88.50
67817;DHT22;54614;47.576;7.524;2023-09-18T05:03:34;26.10;88.50
67817;DHT22;54614;47.576;7.524;2023-09-18T05:06:01;26.10;88.50
67817;DHT22;54614;47.576;7.524;2023-09-18T05:08:28;26.10;88.50
67817;DHT22;54614;47.576;7.524;2023-09-18T05:10:54;26.10;88.60
67817;DHT22;54614;47.576;7.524;2023-09-18T05:13:20;26.20;90.70
67817;DHT22;54614;47.576;7.524;2023-09-18T05:15:45;26.20;91.40
67817;DHT22;54614;47.576;7.524;2023-09-18T05:18:11;26.20;90.50
67817;DHT22;54614;47.576;7.524;2023-09-18T05:20:39;26.20;90.10
67817;DHT22;54614;47.576;7.524;2023-09-18T05:23:05;26.30;90.00
67817;DHT22;54614;47.576;7.524;2023-09-18T05:25:33;26.30;90.30
67817;DHT22;54614;47.576;7.524;2023-09-18T05:28:02;26.20;90.00
67817;DHT22;54614;47.576;7.524;2023-09-18T05:30:33;26.20;90.00
67817;DHT22;54614;47.576;7.524;2023-09-18T05:33:01;26.20;90.10
67817;DHT22;54614;47.576;7.524;2023-09-18T05:35:34;26.20;89.90
67817;DHT22;54614;47.576;7.524;2023-09-18T05:38:04;26.20;89.80
67817;DHT22;54614;47.576;7.524;2023-09-18T05:40:31;26.20;89.80
67817;DHT22;54614;47.576;7.524;2023-09-18T05:42:57;26.20;89.60
67817;DHT22;54614;47.576;7.524;2023-09-18T05:45:23;26.00;88.90
67817;DHT22;54614;47.576;7.524;2023-09-18T05:47:50;26.00;89.20
67817;DHT22;54614;47.576;7.524;2023-09-18T05:50:17;26.00;89.30
67817;DHT22;54614;47.576;7.524;2023-09-18T05:52:44;26.10;89.30
67817;DHT22;54614;47.576;7.524;2023-09-18T05:55:11;26.10;89.10
67817;DHT22;54614;47.576;7.524;2023-09-18T05:57:37;26.20;89.00
67817;DHT22;54614;47.576;7.524;2023-09-18T06:00:04;26.20;89.00
67817;DHT22;54614;47.576;7.524;2023-09-18T06:02:30;26.10;89.00
67817;DHT22;54614;47.576;7.524;2023-09-18T06:04:57;26.10;89.00
67817;DHT22;54614;47.576;7.524;2023-09-18T06:07:29;26.10;89.00
67817;DHT22;54614;47.576;7.524;2023-09-18T06:09:57;26.10;88.80
67817;DHT22;54614;47.576;7.524;2023-09-18T06:12:23;26.10;88.80
67817;DHT22;54614;47.576;7.524;2023-09-18T06:14:49;26.10;88.80
67817;DHT22;54614;47.576;7.524;2023-09-18T06:17:15;26.10;88.90
67817;DHT22;54614;47.576;7.524;2023-09-18T06:19:42;26.10;88.80
67817;DHT22;54614;47.576;7.524;2023-09-18T06:22:09;26.10;88.70
67817;DHT22;54614;47.576;7.524;2023-09-18T06:24:35;26.10;88.80
67817;DHT22;54614;47.576;7.524;2023-09-18T06:27:01;26.10;88.80
67817;DHT22;54614;47.576;7.524;2023-09-18T06:29:30;26.10;88.80
67817;DHT22;54614;47.576;7.524;2023-09-18T06:31:56;26.10;88.80
67817;DHT22;54614;47.576;7.524;2023-09-18T06:34:22;26.10;88.80
67817;DHT22;54614;47.576;7.524;2023-09-18T06:36:47;26.10;88.80
67817;DHT22;54614;47.576;7.524;2023-09-18T06:39:14;26.10;88.90
67817;DHT22;54614;47.576;7.524;2023-09-18T06:41:40;26.10;88.80
67817;DHT22;54614;47.576;7.524;2023-09-18T06:44:06;26.10;88.70
67817;DHT22;54614;47.576;7.524;2023-09-18T06:46:32;26.10;88.60
67817;DHT22;54614;47.576;7.524;2023-09-18T06:48:58;26.10;88.60
67817;DHT22;54614;47.576;7.524;2023-09-18T06:51:25;26.10;88.60
67817;DHT22;54614;47.576;7.524;2023-09-18T06:53:53;26.10;88.50
67817;DHT22;54614;47.576;7.524;2023-09-18T06:56:19;26.10;88.50
67817;DHT22;54614;47.576;7.524;2023-09-18T06:58:45;26.10;88.50
67817;DHT22;54614;47.576;7.524;2023-09-18T07:01:13;26.10;88.50
67817;DHT22;54614;47.576;7.524;2023-09-18T07:03:40;26.10;88.50
67817;DHT22;54614;47.576;7.524;2023-09-18T07:06:06;26.10;88.40
67817;DHT22;54614;47.576;7.524;2023-09-18T07:08:32;26.20;88.50
67817;DHT22;54614;47.576;7.524;2023-09-18T07:10:58;26.20;88.60
67817;DHT22;54614;47.576;7.524;2023-09-18T07:13:24;26.20;88.50
67817;DHT22;54614;47.576;7.524;2023-09-18T07:15:50;26.10;88.30
67817;DHT22;54614;47.576;7.524;2023-09-18T07:18:16;26.20;88.40
67817;DHT22;54614;47.576;7.524;2023-09-18T07:20:43;26.20;88.40
67817;DHT22;54614;47.576;7.524;2023-09-18T07:23:10;26.20;88.30
67817;DHT22;54614;47.576;7.524;2023-09-18T07:25:36;26.10;88.30
67817;DHT22;54614;47.576;7.524;2023-09-18T07:28:08;26.20;88.30
67817;DHT22;54614;47.576;7.524;2023-09-18T07:30:34;26.20;88.30
67817;DHT22;54614;47.576;7.524;2023-09-18T07:33:01;26.20;88.30
67817;DHT22;54614;47.576;7.524;2023-09-18T07:35:27;26.10;88.20
67817;DHT22;54614;47.576;7.524;2023-09-18T07:37:53;26.20;88.30
67817;DHT22;54614;47.576;7.524;2023-09-18T07:40:19;26.10;88.20
67817;DHT22;54614;47.576;7.524;2023-09-18T07:42:45;26.20;88.20
67817;DHT22;54614;47.576;7.524;2023-09-18T07:45:11;26.20;88.20
67817;DHT22;54614;47.576;7.524;2023-09-18T07:47:37;26.10;88.10
67817;DHT22;54614;47.576;7.524;2023-09-18T07:50:04;26.20;88.20
67817;DHT22;54614;47.576;7.524;2023-09-18T07:52:30;26.20;88.20
67817;DHT22;54614;47.576;7.524;2023-09-18T07:54:57;26.20;88.10
67817;DHT22;54614;47.576;7.524;2023-09-18T07:57:24;26.20;88.20
67817;DHT22;54614;47.576;7.524;2023-09-18T07:59:50;26.20;88.10
67817;DHT22;54614;47.576;7.524;2023-09-18T08:02:16;26.20;88.10
67817;DHT22;54614;47.576;7.524;2023-09-18T08:04:43;26.20;88.10
67817;DHT22;54614;47.576;7.524;2023-09-18T08:07:09;26.20;88.10
67817;DHT22;54614;47.576;7.524;2023-09-18T08:09:36;26.20;88.00
67817;DHT22;54614;47.576;7.524;2023-09-18T08:12:08;26.20;88.00
67817;DHT22;54614;47.576;7.524;2023-09-18T08:14:34;26.20;88.20
67817;DHT22;54614;47.576;7.524;2023-09-18T08:17:02;26.20;88.00
67817;DHT22;54614;47.576;7.524;2023-09-18T08:19:32;26.20;88.00
67817;DHT22;54614;47.576;7.524;2023-09-18T08:21:59;26.20;88.10
67817;DHT22;54614;47.576;7.524;2023-09-18T08:24:29;26.20;88.10
67817;DHT22;54614;47.576;7.524;2023-09-18T08:26:55;26.20;88.10
67817;DHT22;54614;47.576;7.524;2023-09-18T08:29:22;26.20;88.10
67817;DHT22;54614;47.576;7.524;2023-09-18T08:31:48;26.20;88.00
67817;DHT22;54614;47.576;7.524;2023-09-18T08:34:15;26.10;87.80
67817;DHT22;54614;47.576;7.524;2023-09-18T08:36:41;26.20;87.90
67817;DHT22;54614;47.576;7.524;2023-09-18T08:39:07;26.20;88.00
67817;DHT22;54614;47.576;7.524;2023-09-18T08:41:33;26.20;88.00
67817;DHT22;54614;47.576;7.524;2023-09-18T08:44:04;26.20;88.00
67817;DHT22;54614;47.576;7.524;2023-09-18T08:46:34;26.20;87.90
67817;DHT22;54614;47.576;7.524;2023-09-18T08:49:00;26.20;88.00
67817;DHT22;54614;47.576;7.524;2023-09-18T08:51:27;26.10;87.90
67817;DHT22;54614;47.576;7.524;2023-09-18T08:53:54;26.20;88.00
67817;DHT22;54614;47.576;7.524;2023-09-18T08:56:21;26.20;88.00
67817;DHT22;54614;47.576;7.524;2023-09-18T08:58:48;26.20;88.00
67817;DHT22;54614;47.576;7.524;2023-09-18T09:01:15;26.20;87.90
67817;DHT22;54614;47.576;7.524;2023-09-18T09:03:42;26.20;87.90
67817;DHT22;54614;47.576;7.524;2023-09-18T09:06:12;26.20;87.90
67817;DHT22;54614;47.576;7.524;2023-09-18T09:08:38;26.20;87.90
67817;DHT22;54614;47.576;7.524;2023-09-18T09:11:04;26.20;87.80
67817;DHT22;54614;47.576;7.524;2023-09-18T09:13:30;26.20;87.80
67817;DHT22;54614;47.576;7.524;2023-09-18T09:15:58;26.20;87.80
67817;DHT22;54614;47.576;7.524;2023-09-18T09:18:26;26.20;87.80
67817;DHT22;54614;47.576;7.524;2023-09-18T09:20:57;26.20;87.80
67817;DHT22;54614;47.576;7.524;2023-09-18T09:23:29;26.20;87.80
67817;DHT22;54614;47.576;7.524;2023-09-18T09:26:14;26.20;87.80
67817;DHT22;54614;47.576;7.524;2023-09-18T09:28:43;26.20;87.80
67817;DHT22;54614;47.576;7.524;2023-09-18T09:31:10;26.20;87.80
67817;DHT22;54614;47.576;7.524;2023-09-18T09:33:37;26.20;87.80
67817;DHT22;54614;47.576;7.524;2023-09-18T09:36:06;26.20;87.80
67817;DHT22;54614;47.576;7.524;2023-09-18T09:38:33;26.20;87.80
67817;DHT22;54614;47.576;7.524;2023-09-18T09:41:01;26.20;87.90
67817;DHT22;54614;47.576;7.524;2023-09-18T09:43:29;26.20;87.90
67817;DHT22;54614;47.576;7.524;2023-09-18T09:46:01;26.20;87.80
67817;DHT22;54614;47.576;7.524;2023-09-18T09:48:28;26.20;87.80
67817;DHT22;54614;47.576;7.524;2023-09-18T09:51:00;26.20;87.80
67817;DHT22;54614;47.576;7.524;2023-09-18T09:53:45;26.20;87.80
67817;DHT22;54614;47.576;7.524;2023-09-18T09:56:14;26.20;87.80
67817;DHT22;54614;47.576;7.524;2023-09-18T09:58:40;26.10;87.80
67817;DHT22;54614;47.576;7.524;2023-09-18T10:01:12;26.20;87.80
67817;DHT22;54614;47.576;7.524;2023-09-18T10:03:43;26.10;87.80
67817;DHT22;54614;47.576;7.524;2023-09-18T10:06:10;26.10;87.80
67817;DHT22;54614;47.576;7.524;2023-09-18T10:08:40;26.10;87.70
67817;DHT22;54614;47.576;7.524;2023-09-18T10:11:08;26.10;87.80
67817;DHT22;54614;47.576;7.524;2023-09-18T10:13:57;26.10;87.70
67817;DHT22;54614;47.576;7.524;2023-09-18T10:16:30;26.20;87.80
67817;DHT22;54614;47.576;7.524;2023-09-18T10:21:57;26.20;87.80
67817;DHT22;54614;47.576;7.524;2023-09-18T10:24:34;26.10;87.70
67817;DHT22;54614;47.576;7.524;2023-09-18T10:27:05;26.20;87.60
67817;DHT22;54614;47.576;7.524;2023-09-18T10:29:35;26.20;87.60
67817;DHT22;54614;47.576;7.524;2023-09-18T10:32:06;26.20;87.60
67817;DHT22;54614;47.576;7.524;2023-09-18T10:34:35;26.20;87.70
67817;DHT22;54614;47.576;7.524;2023-09-18T10:37:05;26.20;87.70
67817;DHT22;54614;47.576;7.524;2023-09-18T10:39:38;26.20;87.60
67817;DHT22;54614;47.576;7.524;2023-09-18T10:42:10;26.20;87.60
67817;DHT22;54614;47.576;7.524;2023-09-18T10:44:38;26.20;87.70
67817;DHT22;54614;47.576;7.524;2023-09-18T10:47:08;26.20;87.70
67817;DHT22;54614;47.576;7.524;2023-09-18T10:49:36;26.10;87.70
67817;DHT22;54614;47.576;7.524;2023-09-18T10:52:03;26.20;87.70
67817;DHT22;54614;47.576;7.524;2023-09-18T10:54:30;26.10;87.60
67817;DHT22;54614;47.576;7.524;2023-09-18T10:56:57;26.10;87.60
67817;DHT22;54614;47.576;7.524;2023-09-18T10:59:23;26.10;87.60
67817;DHT22;54614;47.576;7.524;2023-09-18T11:01:50;26.20;87.70
67817;DHT22;54614;47.576;7.524;2023-09-18T11:04:20;26.20;87.50
67817;DHT22;54614;47.576;7.524;2023-09-18T11:09:26;26.20;87.70
67817;DHT22;54614;47.576;7.524;2023-09-18T11:14:29;26.20;87.70
67817;DHT22;54614;47.576;7.524;2023-09-18T11:17:32;26.20;87.70
67817;DHT22;54614;47.576;7.524;2023-09-18T11:22:55;26.20;87.60
67817;DHT22;54614;47.576;7.524;2023-09-18T11:25:37;26.20;87.60
67817;DHT22;54614;47.576;7.524;2023-09-18T11:28:04;26.20;87.60
67817;DHT22;54614;47.576;7.524;2023-09-18T11:30:36;26.20;87.60
67817;DHT22;54614;47.576;7.524;2023-09-18T11:33:05;26.20;87.60
67817;DHT22;54614;47.576;7.524;2023-09-18T11:35:32;26.20;87.60
67817;DHT22;54614;47.576;7.524;2023-09-18T11:38:07;26.20;87.60
67817;DHT22;54614;47.576;7.524;2023-09-18T11:40:38;26.20;87.60
67817;DHT22;54614;47.576;7.524;2023-09-18T11:43:26;26.20;87.60
67817;DHT22;54614;47.576;7.524;2023-09-18T11:45:59;26.20;87.60
67817;DHT22;54614;47.576;7.524;2023-09-18T11:48:27;26.20;87.50
67817;DHT22;54614;47.576;7.524;2023-09-18T11:50:57;26.20;87.40
67817;DHT22;54614;47.576;7.524;2023-09-18T11:53:24;26.20;87.40
67817;DHT22;54614;47.576;7.524;2023-09-18T11:55:52;26.20;87.50
67817;DHT22;54614;47.576;7.524;2023-09-18T11:58:19;26.20;87.60
67817;DHT22;54614;47.576;7.524;2023-09-18T12:00:52;26.20;88.20
67817;DHT22;54614;47.576;7.524;2023-09-18T12:03:23;26.20;87.50
67817;DHT22;54614;47.576;7.524;2023-09-18T12:05:57;26.20;87.50
67817;DHT22;54614;47.576;7.524;2023-09-18T12:08:26;26.20;87.50
67817;DHT22;54614;47.576;7.524;2023-09-18T12:10:56;26.20;87.40
67817;DHT22;54614;47.576;7.524;2023-09-18T12:13:25;26.20;87.50
67817;DHT22;54614;47.576;7.524;2023-09-18T12:16:05;26.20;87.50
67817;DHT22;54614;47.576;7.524;2023-09-18T12:18:33;26.20;87.50
67817;DHT22;54614;47.576;7.524;2023-09-18T12:21:02;26.20;87.50
67817;DHT22;54614;47.576;7.524;2023-09-18T12:23:42;26.20;87.50
67817;DHT22;54614;47.576;7.524;2023-09-18T12:26:11;26.20;87.50
67817;DHT22;54614;47.576;7.524;2023-09-18T12:28:39;26.20;87.50
67817;DHT22;54614;47.576;7.524;2023-09-18T12:31:10;26.20;87.50
67817;DHT22;54614;47.576;7.524;2023-09-18T12:33:37;26.20;87.50
67817;DHT22;54614;47.576;7.524;2023-09-18T12:36:06;26.20;87.50
67817;DHT22;54614;47.576;7.524;2023-09-18T12:38:34;26.20;87.50
67817;DHT22;54614;47.576;7.524;2023-09-18T12:41:03;26.20;87.50
67817;DHT22;54614;47.576;7.524;2023-09-18T12:43:37;26.20;87.50
67817;DHT22;54614;47.576;7.524;2023-09-18T12:46:06;26.20;87.50
67817;DHT22;54614;47.576;7.524;2023-09-18T12:48:37;26.20;87.60
67817;DHT22;54614;47.576;7.524;2023-09-18T12:51:07;26.20;87.50
67817;DHT22;54614;47.576;7.524;2023-09-18T12:53:33;26.20;87.50
67817;DHT22;54614;47.576;7.524;2023-09-18T12:56:13;26.20;87.50
67817;DHT22;54614;47.576;7.524;2023-09-18T12:58:40;26.20;87.50
67817;DHT22;54614;47.576;7.524;2023-09-18T13:01:08;26.20;87.50
67817;DHT22;54614;47.576;7.524;2023-09-18T13:03:45;26.20;87.50
67817;DHT22;54614;47.576;7.524;2023-09-18T13:06:20;26.20;87.50
67817;DHT22;54614;47.576;7.524;2023-09-18T13:08:47;26.20;87.40
67817;DHT22;54614;47.576;7.524;2023-09-18T13:11:13;26.20;87.50
67817;DHT22;54614;47.576;7.524;2023-09-18T13:13:41;26.20;87.50
67817;DHT22;54614;47.576;7.524;2023-09-18T13:16:08;26.20;87.30
67817;DHT22;54614;47.576;7.524;2023-09-18T13:18:37;26.30;87.30
67817;DHT22;54614;47.576;7.524;2023-09-18T13:21:10;26.30;87.30
67817;DHT22;54614;47.576;7.524;2023-09-18T13:23:37;26.30;87.40
67817;DHT22;54614;47.576;7.524;2023-09-18T13:26:05;26.20;87.30
67817;DHT22;54614;47.576;7.524;2023-09-18T13:28:35;26.30;87.30
67817;DHT22;54614;47.576;7.524;2023-09-18T13:31:05;26.20;87.20
67817;DHT22;54614;47.576;7.524;2023-09-18T13:33:32;26.30;87.30
67817;DHT22;54614;47.576;7.524;2023-09-18T13:36:03;26.30;87.30
67817;DHT22;54614;47.576;7.524;2023-09-18T13:38:29;26.30;87.30
67817;DHT22;54614;47.576;7.524;2023-09-18T13:40:54;26.30;87.30
67817;DHT22;54614;47.576;7.524;2023-09-18T13:43:20;26.30;87.30
67817;DHT22;54614;47.576;7.524;2023-09-18T13:45:50;26.20;87.30
67817;DHT22;54614;47.576;7.524;2023-09-18T13:48:20;26.30;87.30
67817;DHT22;54614;47.576;7.524;2023-09-18T13:50:47;26.30;87.30
67817;DHT22;54614;47.576;7.524;2023-09-18T13:53:13;26.30;87.30
67817;DHT22;54614;47.576;7.524;2023-09-18T13:55:39;26.30;87.30
67817;DHT22;54614;47.576;7.524;2023-09-18T13:58:05;26.30;87.30
67817;DHT22;54614;47.576;7.524;2023-09-18T14:00:31;26.30;87.30
67817;DHT22;54614;47.576;7.524;2023-09-18T14:02:58;26.30;87.40
67817;DHT22;54614;47.576;7.524;2023-09-18T14:05:25;26.30;87.30
67817;DHT22;54614;47.576;7.524;2023-09-18T14:07:52;26.30;87.30
67817;DHT22;54614;47.576;7.524;2023-09-18T14:10:22;26.20;87.40
67817;DHT22;54614;47.576;7.524;2023-09-18T14:12:49;26.30;87.40
67817;DHT22;54614;47.576;7.524;2023-09-18T14:15:15;26.30;86.90
67817;DHT22;54614;47.576;7.524;2023-09-18T14:17:41;26.30;87.50
67817;DHT22;54614;47.576;7.524;2023-09-18T14:20:07;26.40;87.30
67817;DHT22;54614;47.576;7.524;2023-09-18T14:22:34;26.40;87.20
67817;DHT22;54614;47.576;7.524;2023-09-18T14:25:01;26.40;87.30
67817;DHT22;54614;47.576;7.524;2023-09-18T14:27:31;26.30;87.30
67817;DHT22;54614;47.576;7.524;2023-09-18T14:29:57;26.30;87.30
67817;DHT22;54614;47.576;7.524;2023-09-18T14:32:23;26.30;87.40
67817;DHT22;54614;47.576;7.524;2023-09-18T14:34:49;26.30;87.40
67817;DHT22;54614;47.576;7.524;2023-09-18T14:37:15;26.30;87.40
67817;DHT22;54614;47.576;7.524;2023-09-18T14:39:40;26.30;87.40
67817;DHT22;54614;47.576;7.524;2023-09-18T14:42:06;26.30;87.40
67817;DHT22;54614;47.576;7.524;2023-09-18T14:44:32;26.30;87.40
67817;DHT22;54614;47.576;7.524;2023-09-18T14:46:58;26.30;87.40
67817;DHT22;54614;47.576;7.524;2023-09-18T14:49:25;26.30;87.30
67817;DHT22;54614;47.576;7.524;2023-09-18T14:51:53;26.30;87.30
67817;DHT22;54614;47.576;7.524;2023-09-18T14:54:19;26.30;87.40
67817;DHT22;54614;47.576;7.524;2023-09-18T14:56:45;26.30;87.40
67817;DHT22;54614;47.576;7.524;2023-09-18T14:59:12;26.30;87.40
67817;DHT22;54614;47.576;7.524;2023-09-18T15:01:38;26.30;87.40
67817;DHT22;54614;47.576;7.524;2023-09-18T15:04:04;26.30;87.40
67817;DHT22;54614;47.576;7.524;2023-09-18T15:06:30;26.30;87.30
67817;DHT22;54614;47.576;7.524;2023-09-18T15:08:56;26.30;87.40
67817;DHT22;54614;47.576;7.524;2023-09-18T15:11:22;26.30;87.40
67817;DHT22;54614;47.576;7.524;2023-09-18T15:13:48;26.30;87.40
67817;DHT22;54614;47.576;7.524;2023-09-18T15:16:14;26.30;87.40
67817;DHT22;54614;47.576;7.524;2023-09-18T15:18:40;26.30;87.50
67817;DHT22;54614;47.576;7.524;2023-09-18T15:21:06;26.30;87.30
67817;DHT22;54614;47.576;7.524;2023-09-18T15:23:32;26.30;87.30
67817;DHT22;54614;47.576;7.524;2023-09-18T15:25:58;26.30;87.40
67817;DHT22;54614;47.576;7.524;2023-09-18T15:28:24;26.30;87.30
67817;DHT22;54614;47.576;7.524;2023-09-18T15:30:52;26.30;87.30
67817;DHT22;54614;47.576;7.524;2023-09-18T15:33:18;26.30;87.30
67817;DHT22;54614;47.576;7.524;2023-09-18T15:35:44;26.30;87.90
67817;DHT22;54614;47.576;7.524;2023-09-18T15:38:10;26.40;87.90
67817;DHT22;54614;47.576;7.524;2023-09-18T15:40:36;26.40;88.10
67817;DHT22;54614;47.576;7.524;2023-09-18T15:43:03;26.40;88.30
67817;DHT22;54614;47.576;7.524;2023-09-18T15:45:30;26.40;88.40
67817;DHT22;54614;47.576;7.524;2023-09-18T15:47:56;26.30;88.10